Time;durP1;ratioP1;P1;durP2;ratioP2;P2;SDS_P1;SDS_P2;PMS_P1;PMS_P2;Temp;Humidity;BMP_temperature;BMP_pressure;BME280_temperature;BME280_humidity;BME280_pressure;Samples;Min_cycle;Max_cycle;Signal;HPM_P1;HPM_P2
2022/02/05 00:02:26;;;;;;;3.45;0.70;;;;;;;3.88;69.44;97445.50;4960979;28;20278;-85
2022/02/05 00:04:52;;;;;;;2.47;0.73;;;;;;;3.75;69.50;97449.63;4933203;28;20596;-85
2022/02/05 00:07:18;;;;;;;2.72;0.68;;;;;;;3.72;69.37;97447.44;4949572;28;20170;-85
2022/02/05 00:42:10;;;;;;;5.47;1.85;;;;;;;3.50;69.55;97482.81;4942887;28;20197;-86
2022/02/05 00:44:35;;;;;;;4.43;1.10;;;;;;;3.52;70.05;97480.81;4933905;28;20196;-86
2022/02/05 00:47:01;;;;;;;5.00;1.88;;;;;;;3.53;70.04;97479.84;4930457;28;20186;-87
2022/02/05 00:49:26;;;;;;;3.75;1.50;;;;;;;3.56;70.03;97476.09;4917201;28;20272;-87
2022/02/05 00:51:59;;;;;;;4.45;1.48;;;;;;;3.66;70.19;97480.88;4943043;28;20188;-87
2022/02/05 00:54:26;;;;;;;6.05;1.42;;;;;;;3.66;70.09;97480.88;4925776;28;20520;-86
2022/02/05 00:59:29;;;;;;;5.22;2.47;;;;;;;3.64;69.79;97480.28;4948940;28;20242;-87
2022/02/05 01:01:54;;;;;;;7.03;1.80;;;;;;;3.67;70.17;97482.50;4948546;28;20277;-87
2022/02/05 01:04:19;;;;;;;4.70;1.67;;;;;;;3.66;70.21;97486.03;4934433;28;20588;-87
2022/02/05 01:06:45;;;;;;;4.00;1.65;;;;;;;3.56;69.32;97489.78;4950056;28;20460;-87
2022/02/05 01:09:21;;;;;;;5.68;2.10;;;;;;;3.51;69.40;97497.28;4930910;28;20698;-87
2022/02/05 01:11:47;;;;;;;3.70;1.70;;;;;;;3.46;68.97;97506.53;4942790;28;20207;-88
2022/02/05 01:14:16;;;;;;;4.13;1.63;;;;;;;3.43;70.02;97504.34;4933706;28;20231;-88
2022/02/05 01:16:53;;;;;;;5.88;1.90;;;;;;;3.29;70.31;97488.84;4952395;28;20196;-87
2022/02/05 01:20:20;;;;;;;4.13;1.52;;;;;;;3.30;70.06;97512.78;4954028;28;20256;-88
2022/02/05 01:22:07;;;;;;;4.53;1.85;;;;;;;3.24;69.97;97508.38;4944056;28;20224;-87
2022/02/05 01:24:33;;;;;;;5.38;1.70;;;;;;;3.24;70.35;97523.81;4932159;28;20189;-88
2022/02/05 01:27:10;;;;;;;4.20;2.28;;;;;;;3.14;70.47;97504.38;4935717;28;20729;-88
2022/02/05 01:32:09;;;;;;;7.13;2.55;;;;;;;3.17;71.50;97514.31;4952331;28;20746;-88
2022/02/05 01:34:54;;;;;;;7.10;2.95;;;;;;;3.39;70.76;97527.09;4918069;28;20208;-87
2022/02/05 01:51:32;;;;;;;6.68;2.35;;;;;;;3.35;70.09;97534.38;4968395;28;20192;-87
2022/02/05 01:54:28;;;;;;;6.05;2.60;;;;;;;3.34;70.35;97534.56;4947426;28;20557;-87
2022/02/05 01:56:49;;;;;;;6.38;2.42;;;;;;;3.36;70.66;97537.78;4944905;28;20659;-87
2022/02/05 01:59:24;;;;;;;6.57;2.53;;;;;;;3.29;70.37;97542.88;4934155;28;20319;-86
2022/02/05 02:09:33;;;;;;;6.95;2.63;;;;;;;3.32;70.13;97539.13;4950124;28;20635;-87
2022/02/05 02:10:25;;;;;;;5.80;2.67;;;;;;;3.53;70.46;97544.22;4947642;28;20165;-86
2022/02/05 02:15:42;;;;;;;9.30;2.83;;;;;;;3.49;70.54;97542.97;4965599;28;20208;-87
2022/02/05 02:18:27;;;;;;;6.72;3.03;;;;;;;3.45;71.08;97544.34;4932378;28;20214;-87
2022/02/05 02:26:09;;;;;;;6.95;2.97;;;;;;;3.63;71.02;97564.44;4952900;28;20215;-87
2022/02/05 02:28:56;;;;;;;7.25;3.30;;;;;;;3.61;70.59;97557.91;4935934;28;20624;-88
2022/02/05 02:31:29;;;;;;;6.60;3.10;;;;;;;3.65;70.92;97561.69;4937869;28;20634;-87
2022/02/05 02:33:58;;;;;;;6.97;3.17;;;;;;;3.74;70.21;97566.50;4936435;28;20282;-88
2022/02/05 02:36:33;;;;;;;7.15;2.80;;;;;;;3.81;71.00;97566.53;4953300;28;20212;-89
2022/02/05 02:39:09;;;;;;;7.60;3.50;;;;;;;3.81;70.96;97556.22;4917333;28;20178;-86
2022/02/05 02:41:46;;;;;;;8.73;3.95;;;;;;;3.89;70.82;97578.44;4927080;28;20675;-87
2022/02/05 02:44:12;;;;;;;9.77;3.20;;;;;;;3.79;70.67;97576.25;4938193;28;20173;-87
2022/02/05 02:46:37;;;;;;;6.38;3.50;;;;;;;3.87;70.70;97575.25;4923332;28;20500;-88
2022/02/05 02:49:04;;;;;;;7.30;2.97;;;;;;;3.80;71.29;97582.97;4953430;28;20169;-87
2022/02/05 03:02:14;;;;;;;5.75;2.88;;;;;;;3.94;70.75;97574.31;4937666;28;20226;-87
2022/02/05 03:04:40;;;;;;;7.63;3.38;;;;;;;3.89;71.61;97581.00;4924589;28;20178;-87
2022/02/05 03:07:05;;;;;;;7.28;3.83;;;;;;;4.03;70.91;97579.31;4936223;28;20707;-87
2022/02/05 03:09:31;;;;;;;7.60;3.25;;;;;;;4.00;71.10;97588.22;4952746;28;20288;-87
2022/02/05 03:11:56;;;;;;;10.00;5.03;;;;;;;4.02;70.66;97580.28;4915606;28;20221;-87
2022/02/05 03:14:22;;;;;;;7.80;3.80;;;;;;;3.94;70.40;97592.34;4930454;28;20370;-87
2022/02/05 03:16:51;;;;;;;6.97;3.38;;;;;;;3.90;71.15;97595.50;4930244;28;20371;-87
2022/02/05 03:19:17;;;;;;;5.97;3.63;;;;;;;3.95;71.15;97600.88;4970642;28;20271;-86
2022/02/05 03:21:43;;;;;;;17.13;3.97;;;;;;;4.09;70.70;97612.03;4929755;28;20309;-86
2022/02/05 03:24:09;;;;;;;7.45;3.58;;;;;;;4.06;70.46;97608.06;4920916;28;20209;-87
2022/02/05 03:26:36;;;;;;;9.43;3.75;;;;;;;3.96;70.82;97617.13;4952151;28;20587;-86
2022/02/05 03:29:05;;;;;;;6.10;3.25;;;;;;;4.08;70.68;97624.13;4937554;28;20169;-86
2022/02/05 03:31:30;;;;;;;9.13;3.70;;;;;;;4.09;70.37;97627.50;4917244;28;20092;-86
2022/02/05 03:33:56;;;;;;;9.20;3.78;;;;;;;4.02;70.57;97629.25;4956194;28;20688;-86
2022/02/05 03:36:21;;;;;;;11.32;3.95;;;;;;;3.98;71.72;97635.78;4964338;28;20252;-85
2022/02/05 03:38:46;;;;;;;9.10;3.95;;;;;;;4.08;71.08;97637.00;4935433;28;20630;-86
2022/02/05 03:41:12;;;;;;;10.18;4.85;;;;;;;4.00;71.47;97626.06;4934869;28;20381;-85
2022/02/05 03:43:37;;;;;;;9.80;4.30;;;;;;;4.07;71.07;97626.91;4926366;28;20255;-86
2022/02/05 03:46:02;;;;;;;10.40;4.88;;;;;;;4.05;71.68;97646.91;4923470;28;20292;-86
2022/02/05 03:48:28;;;;;;;9.98;3.85;;;;;;;4.09;71.43;97640.38;4952817;28;20444;-86
2022/02/05 03:50:53;;;;;;;6.53;3.75;;;;;;;4.19;71.44;97643.41;4932288;28;20215;-86
2022/02/05 03:53:19;;;;;;;9.20;4.03;;;;;;;4.19;71.18;97643.41;4924282;28;20248;-86
2022/02/05 03:55:47;;;;;;;8.77;3.55;;;;;;;4.17;70.93;97642.81;4921985;28;20196;-85
2022/02/05 03:58:13;;;;;;;9.52;4.28;;;;;;;4.23;70.88;97652.34;4950022;28;20181;-86
2022/02/05 04:00:38;;;;;;;10.15;4.82;;;;;;;4.18;70.96;97649.56;4961486;28;20649;-86
2022/02/05 04:03:04;;;;;;;11.15;5.18;;;;;;;4.00;71.01;97651.84;4950884;28;20126;-85
2022/02/05 04:05:29;;;;;;;8.35;5.15;;;;;;;4.08;70.93;97656.84;4950233;28;20208;-85
2022/02/05 04:07:55;;;;;;;12.88;5.00;;;;;;;4.16;70.74;97664.41;4950724;28;20692;-86
2022/02/05 04:10:28;;;;;;;10.20;4.60;;;;;;;4.15;70.91;97652.50;4934946;28;20138;-86
2022/02/05 04:18:21;;;;;;;9.05;5.10;;;;;;;4.26;70.79;97667.41;4951139;28;20360;-85
2022/02/05 04:20:48;;;;;;;12.48;5.75;;;;;;;4.25;70.90;97659.88;4933089;28;20431;-85
2022/02/05 04:23:13;;;;;;;10.55;5.35;;;;;;;4.10;71.07;97667.75;4934884;28;20578;-85
2022/02/05 04:25:38;;;;;;;11.27;6.25;;;;;;;4.08;71.16;97664.56;4935468;28;20247;-85
2022/02/05 04:28:04;;;;;;;12.73;6.20;;;;;;;4.04;71.31;97673.66;4919304;28;20169;-85
2022/02/05 04:30:29;;;;;;;14.85;5.75;;;;;;;4.17;70.95;97668.56;4937925;28;20288;-85
2022/02/05 04:32:55;;;;;;;11.88;5.68;;;;;;;4.18;70.81;97679.66;4924336;28;20268;-85
2022/02/05 04:35:20;;;;;;;11.95;5.20;;;;;;;4.09;71.75;97686.75;4949658;28;20124;-85
2022/02/05 04:37:49;;;;;;;11.73;5.72;;;;;;;3.92;71.78;97675.97;4934223;28;20212;-89
2022/02/05 04:42:57;;;;;;;14.15;5.32;;;;;;;4.29;71.26;97686.88;4966151;28;20220;-85
2022/02/05 04:59:15;;;;;;;10.10;5.15;;;;;;;4.16;71.08;97694.53;4880326;28;20204;-84
2022/02/05 05:04:46;;;;;;;12.95;6.38;;;;;;;4.42;70.30;97696.44;4816609;29;20660;-85
2022/02/05 05:10:07;;;;;;;11.82;5.53;;;;;;;4.35;69.90;97700.78;4802420;29;20213;-85
2022/02/05 05:13:31;;;;;;;12.40;5.88;;;;;;;4.23;70.94;97703.09;4796931;29;20206;-84
2022/02/05 05:20:33;;;;;;;13.23;5.43;;;;;;;4.27;70.72;97701.75;4828923;29;20418;-85
2022/02/05 05:22:58;;;;;;;12.23;6.47;;;;;;;4.24;71.12;97700.31;4809677;29;20174;-85
2022/02/05 05:25:24;;;;;;;12.45;6.28;;;;;;;4.29;70.69;97692.03;4809405;29;20296;-85
2022/02/05 05:27:49;;;;;;;10.68;5.80;;;;;;;4.29;71.21;97705.72;4813844;29;20326;-85
2022/02/05 05:30:15;;;;;;;13.25;5.82;;;;;;;4.37;70.22;97701.38;4801782;29;20145;-85
2022/02/05 05:32:40;;;;;;;11.90;6.82;;;;;;;4.41;70.39;97707.75;4838419;28;20723;-84
2022/02/05 05:35:06;;;;;;;11.70;5.53;;;;;;;4.41;70.46;97705.19;4853726;28;20865;-85
2022/02/05 05:37:32;;;;;;;12.63;5.18;;;;;;;4.22;70.93;97702.31;4855384;28;20824;-85
2022/02/05 05:39:57;;;;;;;16.13;6.25;;;;;;;4.35;70.16;97705.94;4924349;28;20280;-85
2022/02/05 05:42:38;;;;;;;14.38;6.43;;;;;;;4.40;70.37;97708.72;4931795;28;20635;-84
2022/02/05 05:47:51;;;;;;;13.90;5.63;;;;;;;4.43;70.32;97708.34;4967039;28;20278;-85
2022/02/05 05:50:58;;;;;;;10.82;5.32;;;;;;;4.40;70.79;97714.66;4947576;28;20093;-85
2022/02/05 05:53:21;;;;;;;11.90;5.68;;;;;;;4.38;70.98;97710.72;4945560;28;20151;-84
2022/02/05 05:55:47;;;;;;;15.90;6.47;;;;;;;4.43;70.58;97710.94;4931626;28;20177;-85
2022/02/05 05:58:17;;;;;;;11.85;6.20;;;;;;;4.21;70.46;97711.00;4930705;28;20628;-85
2022/02/05 06:00:43;;;;;;;16.38;6.82;;;;;;;4.29;71.33;97703.13;4948781;28;20635;-84
2022/02/05 06:03:09;;;;;;;16.67;7.13;;;;;;;4.21;70.39;97705.84;4942947;28;20277;-85
2022/02/05 06:05:35;;;;;;;14.32;5.72;;;;;;;4.36;70.83;97702.38;4951168;28;20721;-85
2022/02/05 06:08:01;;;;;;;15.02;5.68;;;;;;;4.42;70.95;97701.59;4950795;28;20290;-85
2022/02/05 06:10:26;;;;;;;10.55;5.55;;;;;;;4.28;71.24;97704.13;4934101;28;20302;-85
2022/02/05 06:12:52;;;;;;;14.02;5.93;;;;;;;4.07;71.70;97704.19;4934231;28;20278;-85
2022/02/05 06:15:17;;;;;;;15.95;7.20;;;;;;;3.99;71.02;97706.91;4958762;28;20235;-85
2022/02/05 06:17:42;;;;;;;13.48;6.53;;;;;;;4.23;70.98;97695.34;4934879;28;20728;-85
2022/02/05 06:20:08;;;;;;;14.93;7.30;;;;;;;4.22;70.61;97697.16;4950634;28;20728;-85
2022/02/05 06:22:35;;;;;;;12.70;6.13;;;;;;;4.22;71.28;97720.34;4947718;28;20590;-85
2022/02/05 06:25:01;;;;;;;12.43;5.95;;;;;;;4.19;70.77;97713.00;4947556;28;20333;-85
2022/02/05 06:27:26;;;;;;;12.15;6.57;;;;;;;4.21;70.58;97718.75;4931732;28;20632;-85
2022/02/05 06:29:51;;;;;;;13.63;6.30;;;;;;;4.25;71.12;97721.72;4953237;28;20231;-84
2022/02/05 06:32:17;;;;;;;11.90;6.32;;;;;;;4.15;71.17;97722.09;4950453;28;20206;-85
2022/02/05 06:34:43;;;;;;;14.82;6.43;;;;;;;4.01;71.38;97725.56;4951915;28;20239;-86
2022/02/05 06:37:09;;;;;;;16.33;6.65;;;;;;;4.14;70.74;97725.66;4967948;28;20658;-85
2022/02/05 06:39:34;;;;;;;11.93;6.72;;;;;;;4.10;70.50;97735.53;4931822;28;20204;-84
2022/02/05 06:42:00;;;;;;;13.02;6.70;;;;;;;4.17;71.24;97735.59;4946525;28;20254;-85
2022/02/05 06:44:25;;;;;;;15.57;6.43;;;;;;;4.03;71.13;97736.50;4936054;28;20737;-85
2022/02/05 06:46:51;;;;;;;14.75;6.07;;;;;;;4.10;71.24;97732.19;4968572;28;20671;-85
2022/02/05 06:49:16;;;;;;;8.95;5.40;;;;;;;4.00;70.61;97737.66;4935373;28;20647;-84
2022/02/05 06:51:42;;;;;;;12.80;5.22;;;;;;;4.10;71.33;97740.69;4934535;28;20206;-85
2022/02/05 06:54:07;;;;;;;11.90;5.85;;;;;;;4.13;71.50;97758.34;4961406;28;20192;-85
2022/02/05 06:56:33;;;;;;;11.35;5.30;;;;;;;4.24;71.22;97767.34;4956819;28;20244;-85
2022/02/05 06:58:58;;;;;;;11.45;5.38;;;;;;;4.01;71.14;97767.59;4933752;28;20099;-86
2022/02/05 07:01:23;;;;;;;12.98;5.88;;;;;;;4.01;70.92;97775.31;4966891;28;20598;-84
2022/02/05 07:03:50;;;;;;;12.85;5.72;;;;;;;4.12;71.28;97785.09;4950988;28;20207;-85
2022/02/05 07:06:16;;;;;;;11.90;4.70;;;;;;;4.05;71.60;97791.22;4949782;28;20223;-84
2022/02/05 07:08:42;;;;;;;11.65;5.43;;;;;;;4.08;71.85;97799.34;4947864;28;20173;-84
2022/02/05 07:11:08;;;;;;;8.95;5.50;;;;;;;4.23;70.42;97804.44;4933840;28;20165;-85
2022/02/05 07:13:33;;;;;;;10.13;4.90;;;;;;;4.28;70.67;97799.50;4914964;28;20248;-85
2022/02/05 07:21:13;;;;;;;8.77;4.60;;;;;;;4.21;71.68;97808.94;4966164;28;20211;-85
2022/02/05 07:23:56;;;;;;;8.25;4.43;;;;;;;4.06;70.86;97800.50;4950437;28;20246;-83
2022/02/05 07:29:15;;;;;;;13.40;5.00;;;;;;;4.11;71.05;97800.75;4960589;28;20746;-85
2022/02/05 07:31:49;;;;;;;9.25;4.35;;;;;;;4.10;70.91;97804.31;4932027;28;20494;-84
2022/02/05 07:34:16;;;;;;;10.63;5.05;;;;;;;4.18;70.63;97803.38;4940903;28;20267;-84
2022/02/05 07:36:41;;;;;;;12.70;4.88;;;;;;;4.28;71.33;97804.66;4933494;28;20665;-84
2022/02/05 07:39:08;;;;;;;14.02;4.75;;;;;;;3.99;70.72;97810.75;4959730;28;20223;-84
2022/02/05 07:41:35;;;;;;;12.50;4.78;;;;;;;4.02;71.70;97807.81;4933932;28;20360;-85
2022/02/05 07:44:01;;;;;;;11.23;4.05;;;;;;;4.24;70.67;97815.53;4960432;28;20196;-85
2022/02/05 07:46:27;;;;;;;8.35;4.72;;;;;;;4.30;71.16;97820.72;4933549;28;20654;-85
2022/02/05 07:48:52;;;;;;;10.93;4.65;;;;;;;4.25;71.38;97814.53;4947011;28;20624;-85
2022/02/05 07:51:17;;;;;;;10.25;4.63;;;;;;;4.38;71.12;97819.00;4950004;28;20217;-85
2022/02/05 07:53:45;;;;;;;9.95;4.50;;;;;;;4.43;71.13;97826.97;4933405;28;20165;-85
2022/02/05 07:56:11;;;;;;;12.32;5.45;;;;;;;4.50;70.53;97827.78;4940481;28;20220;-84
2022/02/05 07:58:36;;;;;;;11.30;4.80;;;;;;;4.61;70.14;97835.00;4936602;28;20251;-85
2022/02/05 08:01:03;;;;;;;11.63;4.88;;;;;;;4.50;70.60;97838.09;4916291;28;20196;-86
2022/02/05 08:03:28;;;;;;;10.57;4.63;;;;;;;4.65;71.15;97835.44;4948510;28;20200;-84
2022/02/05 08:05:54;;;;;;;11.93;5.20;;;;;;;4.66;70.82;97837.81;4913625;28;20245;-85
2022/02/05 08:08:24;;;;;;;9.57;4.72;;;;;;;4.73;70.48;97837.03;4947957;28;20199;-85
2022/02/05 08:10:56;;;;;;;9.85;4.95;;;;;;;4.53;69.61;97842.88;4967468;28;20177;-86
2022/02/05 08:13:23;;;;;;;10.75;5.32;;;;;;;4.60;70.01;97848.09;4949489;28;20215;-84
2022/02/05 08:15:53;;;;;;;19.20;5.63;;;;;;;4.68;69.43;97840.22;4935686;28;20174;-84
2022/02/05 08:18:19;;;;;;;10.68;4.88;;;;;;;4.64;69.84;97844.97;4936381;28;20185;-87
2022/02/05 08:20:44;;;;;;;9.00;4.03;;;;;;;4.65;69.74;97836.22;4943861;28;20204;-85
2022/02/05 08:23:09;;;;;;;10.95;5.53;;;;;;;4.48;69.97;97855.56;4931333;28;20327;-87
2022/02/05 08:25:35;;;;;;;11.02;5.40;;;;;;;4.65;70.10;97851.69;4916674;28;20296;-85
2022/02/05 08:28:00;;;;;;;9.35;5.10;;;;;;;4.44;70.80;97842.25;4930021;28;20211;-86
2022/02/05 08:30:25;;;;;;;9.98;5.50;;;;;;;4.47;70.89;97849.59;4934149;28;20215;-86
2022/02/05 08:32:51;;;;;;;14.25;5.63;;;;;;;4.49;70.37;97857.94;4965131;28;20176;-86
2022/02/05 08:35:19;;;;;;;13.95;6.18;;;;;;;4.19;71.71;97857.31;4966277;28;20268;-86
2022/02/05 08:37:46;;;;;;;14.32;6.15;;;;;;;4.42;70.81;97864.03;4914419;28;20247;-86
2022/02/05 08:40:12;;;;;;;13.05;5.88;;;;;;;4.44;70.88;97869.81;4947843;28;20505;-87
2022/02/05 08:42:37;;;;;;;13.88;6.43;;;;;;;4.58;70.17;97866.34;4942636;28;20170;-87
2022/02/05 08:45:03;;;;;;;16.27;6.70;;;;;;;4.62;71.22;97864.16;4965781;28;20366;-87
2022/02/05 08:47:30;;;;;;;15.80;6.65;;;;;;;4.76;70.47;97865.84;4949075;28;20302;-86
2022/02/05 08:49:56;;;;;;;12.88;5.53;;;;;;;4.75;70.53;97853.16;4933239;28;20668;-86
2022/02/05 08:52:22;;;;;;;12.90;6.40;;;;;;;4.82;70.23;97872.03;4932702;28;20301;-86
2022/02/05 08:54:47;;;;;;;14.77;6.50;;;;;;;4.58;70.86;97871.50;4939289;28;20730;-86
2022/02/05 08:57:12;;;;;;;12.60;6.35;;;;;;;4.74;70.52;97867.81;4947057;28;20389;-86
2022/02/05 08:59:52;;;;;;;16.15;6.30;;;;;;;4.88;70.09;97881.59;4948436;28;20615;-87
2022/02/05 09:05:11;;;;;;;;;;;;;;;;;;;;;
2022/02/05 09:07:30;;;;;;;13.07;6.80;;;;;;;4.78;69.74;97876.78;4943096;28;20278;-86
2022/02/05 09:14:55;;;;;;;12.57;5.93;;;;;;;4.67;69.61;97878.09;4951590;28;20201;-88
2022/02/05 09:17:21;;;;;;;12.35;6.22;;;;;;;4.61;69.94;97876.28;4940036;28;20204;-86
2022/02/05 09:19:48;;;;;;;12.02;6.18;;;;;;;4.74;70.09;97898.78;4947201;28;20631;-85
2022/02/05 09:22:13;;;;;;;13.60;6.20;;;;;;;4.87;70.18;97895.50;4931416;28;20683;-86
2022/02/05 09:24:39;;;;;;;16.55;7.85;;;;;;;4.77;69.80;97887.28;4932411;28;20207;-86
2022/02/05 09:27:08;;;;;;;15.25;6.57;;;;;;;4.74;69.93;97896.19;4933119;28;20207;-86
2022/02/05 09:29:40;;;;;;;15.63;6.63;;;;;;;4.73;70.34;97909.28;4934036;28;20257;-85
2022/02/05 09:32:06;;;;;;;13.30;6.22;;;;;;;4.77;69.45;97911.31;4913689;28;20256;-86
2022/02/05 09:34:31;;;;;;;14.80;6.53;;;;;;;4.65;69.92;97913.59;4937805;28;20650;-85
2022/02/05 09:36:58;;;;;;;12.70;6.38;;;;;;;4.49;70.26;97903.56;4933157;28;20216;-85
2022/02/05 09:39:23;;;;;;;15.23;7.18;;;;;;;4.54;70.58;97890.91;4949498;28;20239;-85
2022/02/05 09:41:49;;;;;;;14.60;6.72;;;;;;;4.53;70.74;97884.16;4934711;28;20165;-85
2022/02/05 09:44:14;;;;;;;13.60;6.43;;;;;;;4.75;70.23;97910.69;4964431;28;20302;-86
2022/02/05 09:46:40;;;;;;;21.08;7.38;;;;;;;4.83;69.99;97915.72;4922918;28;20184;-86
2022/02/05 09:49:06;;;;;;;13.05;6.95;;;;;;;4.79;69.85;97911.91;4935677;28;20542;-87
2022/02/05 09:51:35;;;;;;;14.27;6.65;;;;;;;4.89;70.06;97911.56;4936763;28;20272;-87
2022/02/05 09:54:03;;;;;;;19.13;8.05;;;;;;;4.91;68.93;97921.72;4949226;28;20413;-86
2022/02/05 09:56:32;;;;;;;21.15;7.85;;;;;;;4.87;70.02;97927.25;4916657;28;20691;-86
2022/02/05 09:58:58;;;;;;;16.83;7.88;;;;;;;4.88;70.00;97917.72;4936088;28;20636;-86
2022/02/05 10:01:28;;;;;;;18.35;8.38;;;;;;;5.03;69.95;97926.13;4933442;28;20704;-87
2022/02/05 10:03:54;;;;;;;18.52;9.05;;;;;;;4.92;69.22;97918.13;4936495;28;20089;-84
2022/02/05 10:06:25;;;;;;;13.63;7.72;;;;;;;4.84;70.07;97934.56;4969185;28;20644;-88
2022/02/05 10:08:59;;;;;;;15.90;8.15;;;;;;;4.91;70.29;97939.78;4938578;28;20174;-87
2022/02/05 10:11:29;;;;;;;18.65;8.13;;;;;;;5.10;70.30;97948.63;4933254;28;20207;-85
2022/02/05 10:13:54;;;;;;;15.13;7.43;;;;;;;5.09;70.00;97941.84;4942522;28;20193;-86
2022/02/05 10:16:30;;;;;;;14.10;6.80;;;;;;;4.80;69.69;97938.50;4936283;28;20162;-87
2022/02/05 10:18:57;;;;;;;13.98;6.25;;;;;;;5.13;69.43;97935.34;4935021;28;20185;-86
2022/02/05 10:21:28;;;;;;;16.38;7.85;;;;;;;5.09;69.77;97941.84;4936637;28;20160;-85
2022/02/05 10:24:01;;;;;;;13.63;6.05;;;;;;;5.14;69.32;97936.91;4935634;28;20197;-86
2022/02/05 10:26:31;;;;;;;11.80;6.90;;;;;;;5.24;69.77;97942.53;4940487;28;20253;-86
2022/02/05 10:28:58;;;;;;;15.73;7.30;;;;;;;5.32;69.36;97944.19;4935767;28;20276;-85
2022/02/05 10:31:25;;;;;;;15.98;7.32;;;;;;;5.32;69.22;97941.59;4935957;28;20524;-86
2022/02/05 10:34:05;;;;;;;14.88;7.60;;;;;;;5.10;70.05;97920.22;4971456;28;20222;-86
2022/02/05 10:36:32;;;;;;;13.95;6.72;;;;;;;5.28;69.47;97917.94;4933977;28;20261;-87
2022/02/05 10:45:06;;;;;;;15.63;6.45;;;;;;;5.56;68.95;97935.94;4967409;28;20363;-84
2022/02/05 10:47:56;;;;;;;14.00;7.20;;;;;;;5.61;70.53;97932.78;4950959;28;20718;-87
2022/02/05 10:50:27;;;;;;;18.30;6.90;;;;;;;5.89;69.30;97931.84;4944495;28;20200;-86
2022/02/05 10:53:14;;;;;;;11.07;5.75;;;;;;;5.82;68.84;97930.03;4971002;28;20761;-86
2022/02/05 11:06:03;;;;;;;12.93;5.63;;;;;;;6.14;67.51;97920.00;4962967;28;20629;-87
2022/02/05 11:08:29;;;;;;;14.13;6.60;;;;;;;6.26;67.42;97915.06;4956372;28;20208;-86
2022/02/05 11:21:22;;;;;;;10.77;6.15;;;;;;;6.33;67.12;97915.84;4951362;28;20279;-85
2022/02/05 11:23:51;;;;;;;14.02;5.57;;;;;;;6.24;66.59;97911.88;4936380;28;20182;-87
2022/02/05 11:26:20;;;;;;;10.05;5.50;;;;;;;6.37;66.37;97921.41;4950793;28;20788;-86
2022/02/05 11:28:50;;;;;;;14.43;5.80;;;;;;;6.24;67.33;97922.22;4973380;28;20182;-86
2022/02/05 11:31:18;;;;;;;13.52;5.75;;;;;;;6.47;66.59;97908.88;4958144;28;20330;-87
2022/02/05 11:33:44;;;;;;;12.80;5.15;;;;;;;6.62;66.71;97910.50;4942715;28;20279;-87
2022/02/05 11:38:42;;;;;;;10.90;5.63;;;;;;;6.36;66.94;97909.50;4973156;28;20172;-86
2022/02/05 11:41:23;;;;;;;16.50;6.10;;;;;;;6.33;66.65;97912.47;4956727;28;20317;-86
2022/02/05 11:44:17;;;;;;;8.75;5.13;;;;;;;6.22;67.04;97915.63;4954362;28;20230;-85
2022/02/05 11:47:22;;;;;;;8.02;4.80;;;;;;;6.14;68.67;97924.41;4974218;28;20393;-88
2022/02/05 11:49:53;;;;;;;12.63;5.35;;;;;;;6.54;66.86;97912.25;4955587;28;20240;-87
2022/02/05 11:52:37;;;;;;;7.53;4.78;;;;;;;6.64;66.41;97916.25;4937377;28;20286;-86
2022/02/05 11:55:04;;;;;;;10.63;4.55;;;;;;;6.67;66.67;97921.03;4942428;28;20204;-86
2022/02/05 11:57:45;;;;;;;8.13;4.00;;;;;;;6.66;66.57;97916.84;4968120;28;20094;-86
2022/02/05 12:00:11;;;;;;;10.38;4.00;;;;;;;6.85;65.84;97917.81;4938191;28;20246;-85
2022/02/05 12:02:43;;;;;;;12.70;5.00;;;;;;;6.87;64.74;97924.41;4951640;28;20333;-86
2022/02/05 12:05:15;;;;;;;8.93;4.45;;;;;;;6.61;67.04;97927.78;4937351;28;20232;-86
2022/02/05 12:08:12;;;;;;;8.48;4.57;;;;;;;6.73;66.62;97925.38;4939420;28;20580;-84
2022/02/05 12:10:50;;;;;;;10.32;4.80;;;;;;;6.73;66.00;97921.03;4950835;28;20302;-86
2022/02/05 12:13:20;;;;;;;10.52;4.43;;;;;;;6.83;65.93;97915.41;4940449;28;20221;-85
2022/02/05 12:16:06;;;;;;;11.32;4.80;;;;;;;6.73;65.22;97917.63;4957366;28;20318;-87
2022/02/05 12:19:10;;;;;;;8.25;4.22;;;;;;;6.66;66.34;97901.31;4968878;28;20189;-86
2022/02/05 12:21:59;;;;;;;8.20;4.30;;;;;;;6.79;65.85;97909.06;4949940;28;20235;-87
2022/02/05 12:24:41;;;;;;;9.25;4.95;;;;;;;6.92;66.21;97898.69;4975672;28;20373;-87
2022/02/05 12:27:30;;;;;;;8.50;3.88;;;;;;;6.74;66.65;97895.94;4957946;28;20387;-88
2022/02/05 12:30:36;;;;;;;8.20;3.90;;;;;;;6.76;66.62;97899.13;4920144;28;20071;-87
2022/02/05 12:33:04;;;;;;;7.45;4.10;;;;;;;6.77;66.87;97885.19;4938256;28;20268;-87
2022/02/05 12:35:30;;;;;;;9.32;4.25;;;;;;;7.00;66.32;97905.44;4943593;28;20716;-86
2022/02/05 12:37:59;;;;;;;7.65;3.90;;;;;;;6.84;66.85;97891.13;4933876;28;20159;-87
2022/02/05 12:40:25;;;;;;;8.88;4.28;;;;;;;6.99;66.74;97884.94;4933374;28;20264;-87
2022/02/05 12:42:54;;;;;;;9.77;4.13;;;;;;;6.89;66.48;97883.56;4936138;28;20302;-86
2022/02/05 12:45:36;;;;;;;6.13;3.58;;;;;;;6.73;67.06;97873.63;4955093;28;20190;-87
2022/02/05 12:48:06;;;;;;;7.40;4.03;;;;;;;7.04;66.35;97882.53;4922678;28;20292;-87
2022/02/05 12:50:31;;;;;;;6.00;3.67;;;;;;;6.99;66.63;97887.50;4967880;28;20693;-87
2022/02/05 12:52:57;;;;;;;7.50;3.70;;;;;;;6.96;66.77;97862.84;4973727;28;20151;-87
2022/02/05 12:55:26;;;;;;;9.15;3.85;;;;;;;7.01;66.72;97862.22;4928903;28;20170;-87
2022/02/05 12:58:01;;;;;;;6.93;3.70;;;;;;;6.95;67.04;97869.00;4935886;28;20302;-87
2022/02/05 13:00:27;;;;;;;5.78;3.75;;;;;;;7.15;67.29;97865.56;4937973;28;20199;-88
2022/02/05 13:02:52;;;;;;;8.15;4.60;;;;;;;7.16;66.37;97867.94;4944956;28;20281;-87
2022/02/05 13:05:17;;;;;;;6.38;3.50;;;;;;;7.02;66.78;97861.22;4925398;28;20698;-88
2022/02/05 13:07:43;;;;;;;6.43;3.47;;;;;;;7.13;66.53;97865.78;4931499;28;20255;-86
2022/02/05 13:10:09;;;;;;;7.50;4.03;;;;;;;6.94;66.25;97855.28;4957590;28;20367;-85
2022/02/05 13:12:43;;;;;;;10.90;3.40;;;;;;;6.91;67.23;97855.69;4959377;28;20278;-87
2022/02/05 13:28:41;;;;;;;9.52;3.80;;;;;;;7.13;67.37;97868.38;4969809;28;20192;-88
2022/02/05 13:36:41;;;;;;;8.13;4.20;;;;;;;7.07;67.27;97862.19;4937051;28;20378;-86
2022/02/05 13:41:57;;;;;;;6.40;3.72;;;;;;;6.94;68.43;97855.28;4946944;28;20248;-86
2022/02/05 13:44:25;;;;;;;5.38;2.85;;;;;;;6.84;68.15;97870.44;4940169;28;20189;-86
2022/02/05 13:47:10;;;;;;;4.65;3.08;;;;;;;6.52;69.19;97859.94;4944538;28;20210;-86
2022/02/05 13:49:36;;;;;;;5.97;2.70;;;;;;;6.66;69.19;97863.28;4950911;28;20795;-86
2022/02/05 13:52:05;;;;;;;6.72;3.05;;;;;;;6.85;68.67;97866.03;4926418;28;20251;-87
2022/02/05 13:54:36;;;;;;;4.32;2.47;;;;;;;7.00;68.17;97869.19;4934177;28;20179;-87
2022/02/05 13:57:02;;;;;;;5.68;2.47;;;;;;;6.86;67.91;97859.88;4936596;28;20207;-87
2022/02/05 13:59:28;;;;;;;6.95;3.80;;;;;;;6.85;68.15;97869.41;4944360;28;20311;-85
2022/02/05 14:01:54;;;;;;;6.30;2.88;;;;;;;7.03;67.28;97865.41;4920280;28;20196;-86
2022/02/05 14:04:23;;;;;;;5.88;2.78;;;;;;;6.90;67.50;97859.25;4954690;28;20377;-86
2022/02/05 14:06:59;;;;;;;6.55;3.50;;;;;;;6.85;67.45;97864.25;4929305;28;20426;-85
2022/02/05 14:09:25;;;;;;;6.97;2.28;;;;;;;6.85;67.84;97861.66;4935711;28;20266;-85
2022/02/05 14:11:51;;;;;;;5.50;2.60;;;;;;;6.79;67.40;97862.47;4944867;28;20098;-86
2022/02/05 14:14:32;;;;;;;3.63;2.15;;;;;;;6.56;67.63;97839.63;4937981;28;20183;-86
2022/02/05 14:16:58;;;;;;;6.20;2.55;;;;;;;6.93;66.74;97845.13;4935273;28;20276;-87
2022/02/05 14:19:25;;;;;;;5.85;4.07;;;;;;;6.87;66.80;97833.78;4922010;28;20721;-85
2022/02/05 14:21:53;;;;;;;6.88;2.60;;;;;;;7.00;66.59;97851.06;4943132;28;20272;-85
2022/02/05 14:24:27;;;;;;;3.85;2.65;;;;;;;6.94;66.42;97850.09;4973427;28;20122;-85
2022/02/05 14:27:05;;;;;;;3.95;1.85;;;;;;;6.98;66.46;97839.34;4945188;28;20604;-87
2022/02/05 14:29:56;;;;;;;6.45;2.20;;;;;;;7.04;66.66;97828.16;4946642;28;20287;-85
2022/02/05 14:40:40;;;;;;;3.50;2.35;;;;;;;7.12;66.37;97814.97;4965221;28;20108;-86
2022/02/05 14:43:06;;;;;;;5.18;1.70;;;;;;;7.06;66.56;97815.78;4922242;28;20335;-86
2022/02/05 14:45:32;;;;;;;7.00;2.75;;;;;;;7.17;65.55;97816.97;4941869;28;20159;-87
2022/02/05 14:47:58;;;;;;;5.05;2.47;;;;;;;7.29;65.28;97818.66;4961180;28;20184;-86
2022/02/05 14:50:23;;;;;;;3.80;2.30;;;;;;;7.29;65.35;97821.25;4942352;28;20200;-86
2022/02/05 14:52:48;;;;;;;3.75;2.17;;;;;;;7.29;65.69;97821.25;4959547;28;20634;-87
2022/02/05 14:55:14;;;;;;;4.90;2.67;;;;;;;7.37;65.29;97827.19;4916862;28;20281;-88
2022/02/05 14:57:39;;;;;;;7.97;2.70;;;;;;;7.42;65.17;97830.78;4944135;28;20730;-86